Terminal Aerodrome Forecast
Issued by NWS Louisville, KY

Home | Current Version | Previous Version | Text Only | Print | Product List | Glossary On
Versions: 1 2 3 4 5 6 7 8 9 10 11 12 13 14 15 16
608
FTUS43 KLMK 121720
TAFLEX
TAF
KLEX 121720Z 1218/1318 27007G17KT P6SM BKN027
     FM122100 29010G17KT P6SM VCSH BKN025
     FM130300 32008KT P6SM BKN035=

USA.gov is the U.S. government's official web portal to all federal, state and local government web resources and services.